Terminal Aerodrome Forecast
Issued by NWS

Current Version | Previous Version | Graphics & Text | Print | Product List | Glossary On
Versions: 1 2 3 4 5 6 7 8 9 10 11 12 13 14 15 16 17 18 19 20 21 22 23 24 25 26 27 28 29 30 31 32 33 34 35 36 37 38 39 40 41 42 43 44 45 46 47 48 49 50
367
FTUS41 KRNK 042333
TAFLWB
TAF
KLWB 042333Z 0500/0524 28007KT P6SM -SHRA BKN050 OVC080
     FM050400 30004KT 4SM -SHRA BR OVC025
     FM050700 31004KT 2SM -SHRA BR OVC012
      TEMPO 0510/0512 1SM SHRA BR OVC009
     FM051500 26006KT 3SM -SHRA OVC015=

USA.gov is the U.S. government's official web portal to all federal, state and local government web resources and services.